Time;durP1;ratioP1;P1;durP2;ratioP2;P2;SDS_P1;SDS_P2;PMS_P1;PMS_P2;Temp;Humidity;BMP_temperature;BMP_pressure;BME280_temperature;BME280_humidity;BME280_pressure;Samples;Min_cycle;Max_cycle;Signal;HPM_P1;HPM_P2
2023/03/03 00:01:06;;;;;;;360.47;86.50;;;3.30;99.90;;;3.16;61.35;97745.34;4981922;28;20268;-73
2023/03/03 00:03:33;;;;;;;353.77;82.63;;;3.20;99.90;;;3.19;61.26;97750.56;4979437;28;20229;-73
2023/03/03 00:06:03;;;;;;;368.17;88.23;;;3.20;99.90;;;3.20;61.34;97757.50;4982663;28;20362;-73
2023/03/03 00:08:31;;;;;;;361.07;85.63;;;3.20;99.90;;;3.19;61.42;97768.81;4983136;28;20237;-73
2023/03/03 00:10:59;;;;;;;343.90;81.83;;;3.20;99.90;;;3.11;61.51;97765.38;4980690;28;20232;-73
2023/03/03 00:13:27;;;;;;;382.17;92.50;;;3.40;99.90;;;3.05;61.94;97777.59;4983659;28;20232;-73
2023/03/03 00:16:25;;;;;;;361.97;86.90;;;3.20;99.90;;;3.06;62.15;97810.66;4983333;28;20298;-74
2023/03/03 00:18:53;;;;;;;339.63;76.93;;;3.10;99.90;;;3.10;62.21;97822.81;4980259;28;20323;-74
2023/03/03 00:21:39;;;;;;;345.57;80.53;;;3.10;99.90;;;3.08;61.97;97825.44;4984552;28;20228;-73
2023/03/03 00:24:36;;;;;;;362.20;86.33;;;3.10;99.90;;;3.07;62.74;97843.72;4982484;28;20244;-73
2023/03/03 00:27:33;;;;;;;345.97;79.70;;;3.10;99.90;;;2.92;62.59;97851.59;4985537;28;20243;-73
2023/03/03 00:30:01;;;;;;;348.33;79.13;;;3.00;99.90;;;2.87;63.06;97875.94;4986709;28;20282;-73
2023/03/03 00:32:46;;;;;;;352.23;95.43;;;2.90;99.90;;;2.86;63.37;97900.31;4983287;28;20286;-73
2023/03/03 00:35:26;;;;;;;349.27;99.07;;;2.90;99.90;;;2.86;63.70;97917.72;4986834;28;20240;-73
2023/03/03 00:38:11;;;;;;;343.13;85.83;;;2.90;99.90;;;2.85;63.99;97947.28;4987660;28;20228;-73
2023/03/03 00:40:39;;;;;;;364.17;85.57;;;2.90;99.90;;;2.70;64.55;97970.78;4961931;28;20282;-73
2023/03/03 00:43:23;;;;;;;343.03;77.40;;;2.80;99.90;;;2.61;64.89;97991.63;4984687;28;20236;-73
2023/03/03 00:45:55;;;;;;;347.53;80.93;;;2.70;99.90;;;2.63;65.23;98016.88;4982051;28;20248;-73
2023/03/03 00:48:27;;;;;;;358.60;82.53;;;2.80;99.90;;;2.60;65.63;98048.16;4983164;28;20225;-73
2023/03/03 00:51:00;;;;;;;342.73;78.67;;;2.60;99.90;;;2.64;65.74;98065.56;4986015;28;20683;-73
2023/03/03 00:53:29;;;;;;;353.50;81.87;;;3.00;99.90;;;2.71;65.77;98082.09;4984456;28;20240;-73
2023/03/03 00:55:56;;;;;;;350.03;78.80;;;2.80;99.90;;;2.69;65.71;98091.66;4983935;28;20236;-73
2023/03/03 00:58:24;;;;;;;355.43;83.60;;;2.70;99.90;;;2.58;65.94;98095.09;4987478;28;20244;-73
2023/03/03 01:00:55;;;;;;;366.13;86.27;;;2.60;99.90;;;2.69;66.09;98121.25;4985919;28;20287;-74
2023/03/03 01:03:25;;;;;;;352.37;81.23;;;2.60;99.90;;;2.64;66.51;98133.41;4984314;28;20236;-73
2023/03/03 01:05:53;;;;;;;350.60;79.30;;;2.70;99.90;;;2.58;66.35;98130.75;4982176;28;20275;-73
2023/03/03 01:08:21;;;;;;;359.50;82.90;;;2.70;99.90;;;2.60;66.52;98157.75;4984093;28;20296;-73
2023/03/03 01:10:52;;;;;;;354.30;79.70;;;2.60;99.90;;;2.56;66.76;98167.25;4986008;28;20306;-73
2023/03/03 01:13:25;;;;;;;356.97;81.43;;;2.60;99.90;;;2.54;67.00;98173.34;4981500;28;20310;-73
2023/03/03 01:15:53;;;;;;;357.20;82.80;;;2.90;99.90;;;2.47;67.22;98190.69;4985242;28;20263;-73
2023/03/03 01:18:20;;;;;;;356.07;83.73;;;2.60;99.90;;;2.41;67.42;98201.09;4985494;28;20236;-72
2023/03/03 01:20:47;;;;;;;353.97;80.80;;;2.50;99.90;;;2.29;67.87;98216.66;4982103;28;20260;-73
2023/03/03 01:23:14;;;;;;;336.47;73.03;;;2.40;99.90;;;2.33;68.19;98246.25;4985808;28;20322;-73
2023/03/03 01:25:41;;;;;;;357.83;79.60;;;2.60;99.90;;;2.29;68.35;98261.00;4986577;28;20256;-73
2023/03/03 01:28:08;;;;;;;346.90;77.30;;;2.80;99.90;;;2.26;68.49;98271.41;4985524;28;20260;-73
2023/03/03 01:30:35;;;;;;;353.23;78.67;;;2.30;99.90;;;2.24;68.71;98292.25;4989396;28;20341;-73
2023/03/03 01:33:02;;;;;;;352.27;78.27;;;2.30;99.90;;;2.09;69.34;98309.50;4983941;28;20244;-73
2023/03/03 01:35:30;;;;;;;338.57;74.00;;;2.20;99.90;;;2.17;69.76;98354.78;4983580;28;20236;-73
2023/03/03 01:37:58;;;;;;;342.63;75.37;;;2.40;99.90;;;2.11;69.56;98354.72;4986177;28;20270;-73
2023/03/03 01:40:29;;;;;;;345.93;76.27;;;2.20;99.90;;;2.03;69.86;98372.91;4985907;28;20282;-73
2023/03/03 01:42:59;;;;;;;347.53;76.23;;;2.10;99.90;;;2.04;70.37;98399.84;4982527;28;20253;-73
2023/03/03 01:45:28;;;;;;;364.53;83.07;;;2.10;99.90;;;2.01;70.39;98415.44;4984260;28;20256;-73
2023/03/03 01:48:05;;;;;;;346.13;77.00;;;2.10;99.90;;;1.87;70.95;98433.53;4986081;28;20236;-73
2023/03/03 01:50:52;;;;;;;352.13;76.87;;;2.00;99.90;;;1.98;71.34;98470.16;4965734;28;20248;-73
2023/03/03 01:53:28;;;;;;;358.83;79.40;;;2.00;99.90;;;1.89;71.42;98476.13;4980539;28;20259;-73
2023/03/03 01:55:55;;;;;;;347.00;75.60;;;2.00;99.90;;;1.92;71.57;98505.72;4981087;28;20306;-73
2023/03/03 01:58:30;;;;;;;354.07;76.40;;;2.10;99.90;;;1.83;71.99;98521.22;4981734;28;20249;-73
2023/03/03 02:01:02;;;;;;;349.23;74.83;;;2.00;99.90;;;1.82;72.07;98544.66;4986858;28;20719;-73
2023/03/03 02:03:30;;;;;;;346.97;75.43;;;2.00;99.90;;;1.92;72.31;98565.66;4985353;28;20337;-73
2023/03/03 02:06:14;;;;;;;338.33;72.60;;;2.00;99.90;;;1.85;72.66;98587.28;4982812;28;20247;-73
2023/03/03 02:09:02;;;;;;;343.43;71.93;;;2.10;99.90;;;1.79;72.82;98596.75;4983866;28;20240;-73
2023/03/03 02:11:31;;;;;;;348.83;74.90;;;1.90;99.90;;;1.76;73.19;98623.63;4982953;28;20236;-73
2023/03/03 02:13:59;;;;;;;350.70;75.43;;;1.80;99.90;;;1.76;73.40;98636.66;4999857;28;20236;-73
2023/03/03 02:16:26;;;;;;;357.50;78.87;;;2.00;99.90;;;1.74;73.36;98646.19;4982932;28;20322;-73
2023/03/03 02:18:53;;;;;;;340.93;72.50;;;2.00;99.90;;;1.64;73.96;98662.53;4984160;28;20236;-73
2023/03/03 02:21:26;;;;;;;355.37;78.77;;;1.80;99.90;;;1.69;74.18;98686.03;4982907;28;20267;-73
2023/03/03 02:24:04;;;;;;;348.30;73.33;;;1.70;99.90;;;1.62;74.19;98703.31;4984414;28;20240;-73
2023/03/03 02:26:36;;;;;;;347.00;73.60;;;1.80;99.90;;;1.67;74.54;98729.44;4985318;28;20232;-73
2023/03/03 02:29:04;;;;;;;340.07;72.20;;;2.10;99.90;;;1.62;74.87;98749.31;4970073;28;20296;-73
2023/03/03 02:31:31;;;;;;;344.63;73.67;;;1.70;99.90;;;1.51;75.37;98767.38;4981454;28;20266;-73
2023/03/03 02:34:00;;;;;;;347.03;73.03;;;1.80;99.90;;;1.47;75.77;98789.00;4983692;28;20256;-73
2023/03/03 02:36:31;;;;;;;347.70;76.80;;;1.80;99.90;;;1.49;75.88;98810.75;4979024;28;20252;-73
2023/03/03 02:39:17;;;;;;;340.03;72.40;;;1.50;99.90;;;1.56;76.05;98836.94;4983312;28;20232;-73
2023/03/03 02:42:08;;;;;;;347.43;74.77;;;1.60;99.90;;;1.46;76.37;98845.44;4982520;28;20322;-73
2023/03/03 02:44:36;;;;;;;335.13;69.10;;;1.60;99.90;;;1.49;76.31;98855.03;4986216;28;20285;-73
2023/03/03 02:47:03;;;;;;;350.57;75.43;;;1.60;99.90;;;1.48;76.56;98867.16;4983931;28;20644;-73
2023/03/03 02:49:33;;;;;;;345.77;72.30;;;1.50;99.90;;;1.50;76.76;98880.22;4984737;28;20251;-73
2023/03/03 02:52:04;;;;;;;350.57;74.47;;;1.60;99.90;;;1.50;76.87;98901.94;4984990;28;20260;-73
2023/03/03 02:54:31;;;;;;;473.23;137.90;;;1.60;99.90;;;1.44;77.16;98911.34;4971481;28;20299;-73
2023/03/03 02:57:00;;;;;;;350.37;72.67;;;1.60;99.90;;;1.38;77.41;98917.31;4975538;28;20252;-73
2023/03/03 02:59:27;;;;;;;360.43;80.07;;;1.40;99.90;;;1.43;77.71;98931.31;4982848;28;20318;-73
2023/03/03 03:01:55;;;;;;;379.00;81.77;;;1.50;99.90;;;1.43;77.79;98944.34;4983772;28;20240;-73
2023/03/03 03:04:25;;;;;;;345.43;73.43;;;2.40;99.90;;;1.37;78.06;98943.34;4986411;28;20278;-73
2023/03/03 03:06:54;;;;;;;340.63;69.60;;;2.00;99.90;;;1.50;78.10;98966.19;4986757;28;20236;-73
2023/03/03 03:09:24;;;;;;;354.80;75.80;;;1.60;99.90;;;1.34;78.33;98964.97;4983947;28;20229;-73
2023/03/03 03:11:51;;;;;;;329.63;66.03;;;1.70;99.90;;;1.33;78.69;98978.84;4985328;28;20270;-73
2023/03/03 03:14:18;;;;;;;351.03;74.03;;;1.40;99.90;;;1.26;79.00;98993.41;4985042;28;20259;-73
2023/03/03 03:16:45;;;;;;;337.57;68.50;;;1.50;99.90;;;1.24;79.53;99013.34;4984915;28;20310;-73
2023/03/03 03:19:13;;;;;;;340.33;70.40;;;1.40;99.90;;;1.22;79.80;99028.03;4983493;28;20236;-73
2023/03/03 03:21:40;;;;;;;332.17;67.63;;;1.80;99.90;;;1.16;80.12;99045.25;4980642;28;20257;-73
2023/03/03 03:24:08;;;;;;;333.20;66.00;;;1.30;99.90;;;1.12;80.37;99056.44;4982882;28;20224;-73
2023/03/03 03:26:35;;;;;;;329.33;67.87;;;1.20;99.90;;;1.22;80.67;99082.72;4983581;28;20228;-73
2023/03/03 03:29:02;;;;;;;336.10;69.53;;;1.30;99.90;;;1.17;80.83;99101.69;4986402;28;20294;-73
2023/03/03 03:31:29;;;;;;;343.93;72.87;;;1.40;99.90;;;1.18;80.95;99100.84;4983619;28;20811;-73
2023/03/03 03:33:56;;;;;;;328.97;66.53;;;1.30;99.90;;;1.07;81.25;99107.50;4983880;28;20319;-73
2023/03/03 03:36:23;;;;;;;359.33;77.37;;;1.20;99.90;;;1.09;81.48;99111.03;5001147;28;20294;-73
2023/03/03 03:38:51;;;;;;;339.70;67.93;;;1.20;99.90;;;0.96;81.94;99123.72;4981675;28;20239;-73
2023/03/03 03:41:18;;;;;;;333.87;65.83;;;1.20;99.90;;;1.00;82.19;99132.50;4985435;28;20326;-73
2023/03/03 03:43:45;;;;;;;349.80;72.23;;;1.20;99.90;;;0.91;82.67;99148.75;4985803;28;20243;-73
2023/03/03 03:46:12;;;;;;;337.17;68.47;;;1.20;99.90;;;1.00;82.64;99165.44;4986611;28;20228;-73
2023/03/03 03:48:39;;;;;;;341.10;69.33;;;1.20;99.90;;;0.84;82.94;99165.03;4980358;28;20662;-73
2023/03/03 03:51:06;;;;;;;337.63;67.60;;;1.10;99.90;;;0.93;83.25;99182.63;4979072;28;20297;-73
2023/03/03 03:53:33;;;;;;;354.07;73.17;;;1.00;99.90;;;0.89;83.48;99194.66;4979879;28;20232;-73
2023/03/03 03:56:00;;;;;;;350.57;73.03;;;1.10;99.90;;;0.74;83.55;99198.56;4983519;28;20326;-73
2023/03/03 03:58:27;;;;;;;347.63;71.97;;;1.10;99.90;;;0.78;84.25;99210.81;4981526;28;20232;-73
2023/03/03 04:00:54;;;;;;;369.80;79.90;;;0.80;99.90;;;0.71;84.45;99221.91;4982618;28;20244;-73
2023/03/03 04:03:22;;;;;;;349.50;72.47;;;0.80;99.90;;;0.69;84.70;99236.59;4982027;28;20240;-73
2023/03/03 04:05:52;;;;;;;337.57;68.63;;;0.80;99.90;;;0.72;84.95;99255.78;4982053;28;20260;-73
2023/03/03 04:08:19;;;;;;;352.43;71.07;;;0.80;99.90;;;0.71;85.34;99263.53;4982322;28;20283;-73
2023/03/03 04:10:46;;;;;;;338.53;68.27;;;0.80;99.90;;;0.63;85.58;99278.91;4968646;28;20236;-73
2023/03/03 04:13:14;;;;;;;334.63;66.23;;;0.90;99.90;;;0.57;85.90;99291.75;4990126;28;20240;-73
2023/03/03 04:15:41;;;;;;;337.43;67.70;;;1.40;99.90;;;0.70;86.26;99319.00;4988813;28;20264;-73
2023/03/03 04:18:08;;;;;;;333.20;66.70;;;0.80;99.90;;;0.69;86.37;99330.25;4991265;28;20236;-73
2023/03/03 04:20:35;;;;;;;368.80;77.97;;;0.70;99.90;;;0.61;86.49;99323.09;4978097;28;20310;-73
2023/03/03 04:23:02;;;;;;;332.20;65.47;;;0.90;99.90;;;0.56;87.03;99340.28;4987632;28;20264;-73
2023/03/03 04:25:29;;;;;;;347.23;70.40;;;0.70;99.90;;;0.51;87.56;99335.78;4990959;28;20307;-73
2023/03/03 04:27:57;;;;;;;335.80;66.17;;;0.60;99.90;;;0.57;87.72;99356.78;4988565;28;20236;-73
2023/03/03 04:30:25;;;;;;;333.13;63.87;;;0.70;99.90;;;0.56;87.67;99365.41;4987472;28;20228;-73
2023/03/03 04:32:52;;;;;;;336.27;66.30;;;0.70;99.90;;;0.65;87.99;99389.09;4985210;28;20251;-73
2023/03/03 04:35:19;;;;;;;334.50;64.83;;;0.70;99.90;;;0.68;88.14;99402.22;4987045;28;20252;-73
2023/03/03 04:37:46;;;;;;;336.77;66.20;;;0.90;99.90;;;0.60;88.04;99414.09;4984993;28;20236;-72
2023/03/03 04:40:15;;;;;;;333.17;65.43;;;0.70;99.90;;;0.62;88.35;99418.50;4986886;28;20279;-73
2023/03/03 04:42:42;;;;;;;349.03;71.73;;;0.80;99.90;;;0.57;88.90;99427.88;4989213;28;20240;-72
2023/03/03 04:45:10;;;;;;;351.33;73.53;;;0.90;99.90;;;0.55;89.07;99439.09;4981011;28;20244;-73
2023/03/03 04:47:37;;;;;;;348.47;70.57;;;0.70;99.90;;;0.60;89.08;99458.31;4982580;28;20239;-73
2023/03/03 04:50:05;;;;;;;326.67;62.90;;;0.60;99.90;;;0.49;89.66;99454.47;4989797;28;20274;-73
2023/03/03 04:52:32;;;;;;;338.23;67.07;;;0.60;99.90;;;0.41;89.98;99469.84;4985481;28;20258;-73
2023/03/03 04:54:59;;;;;;;340.67;67.83;;;0.80;99.90;;;0.41;90.12;99479.34;4983047;28;20318;-73
2023/03/03 04:57:26;;;;;;;353.27;72.77;;;0.70;99.90;;;0.27;90.72;99490.16;4984997;28;20236;-73
2023/03/03 04:59:53;;;;;;;344.13;69.20;;;0.40;99.90;;;0.34;90.91;99505.97;4985556;28;20657;-73
2023/03/03 05:02:21;;;;;;;334.73;70.00;;;0.50;99.90;;;0.36;91.25;99520.81;4983517;28;20237;-72
2023/03/03 05:04:48;;;;;;;338.03;76.27;;;0.50;99.90;;;0.28;91.10;99523.13;4986207;28;20238;-73
2023/03/03 05:07:16;;;;;;;329.33;70.00;;;0.60;99.90;;;0.28;91.59;99543.06;4982009;28;20304;-72
2023/03/03 05:09:43;;;;;;;346.33;75.93;;;1.00;99.90;;;0.28;91.87;99559.53;4985314;28;20648;-73
2023/03/03 05:12:10;;;;;;;348.97;76.30;;;0.40;99.90;;;0.25;92.14;99558.53;4984095;28;20236;-72
2023/03/03 05:14:37;;;;;;;337.87;72.60;;;0.80;99.90;;;0.25;92.32;99580.22;4985363;28;20285;-72
2023/03/03 05:17:04;;;;;;;335.83;64.40;;;0.40;99.90;;;0.33;92.45;99590.91;4987359;28;20245;-72
2023/03/03 05:19:33;;;;;;;349.87;71.33;;;0.40;99.90;;;0.23;92.75;99594.00;4986045;28;20236;-73
2023/03/03 05:22:01;;;;;;;338.93;69.03;;;1.20;99.90;;;0.29;93.15;99602.03;4986367;28;20599;-72
2023/03/03 05:24:28;;;;;;;336.80;73.10;;;1.10;99.90;;;0.35;92.91;99624.78;4989672;28;20228;-72
2023/03/03 05:26:55;;;;;;;329.43;64.97;;;0.40;99.90;;;0.27;93.37;99629.69;4987610;28;20232;-72
2023/03/03 05:29:22;;;;;;;335.00;70.30;;;0.50;99.90;;;0.33;93.40;99645.53;4989704;28;20317;-73
2023/03/03 05:31:49;;;;;;;333.37;71.10;;;0.40;99.90;;;0.26;93.48;99647.00;4989971;28;20232;-73
2023/03/03 05:34:16;;;;;;;334.90;68.13;;;0.70;99.90;;;0.28;93.62;99657.47;4987560;28;20232;-73
2023/03/03 05:36:44;;;;;;;337.63;65.13;;;0.70;99.90;;;0.28;94.09;99673.06;4987703;28;20232;-72
2023/03/03 05:39:11;;;;;;;342.27;67.77;;;0.40;99.90;;;0.29;94.09;99693.03;4986449;28;20266;-72
2023/03/03 05:41:38;;;;;;;344.07;90.57;;;0.40;99.90;;;0.26;94.40;99698.13;4982947;28;20256;-73
2023/03/03 05:44:05;;;;;;;327.37;64.27;;;0.60;99.90;;;0.28;94.78;99707.75;4984526;28;20318;-73
2023/03/03 05:46:32;;;;;;;341.57;68.10;;;0.40;99.90;;;0.23;94.86;99714.50;4986462;28;20717;-73
2023/03/03 05:48:59;;;;;;;338.97;69.63;;;0.30;99.90;;;0.29;95.14;99732.06;4981628;28;20244;-73
2023/03/03 05:51:26;;;;;;;343.20;66.97;;;0.50;99.90;;;0.29;95.40;99747.66;4985737;28;20251;-72
2023/03/03 05:53:54;;;;;;;346.77;68.10;;;0.50;99.90;;;0.28;95.51;99753.69;4967939;28;20248;-73
2023/03/03 05:56:22;;;;;;;338.43;70.10;;;0.50;99.90;;;0.29;95.68;99769.34;4988329;28;20225;-73
2023/03/03 05:58:49;;;;;;;342.27;69.97;;;0.80;99.90;;;0.24;96.00;99777.78;4987335;28;20779;-73
2023/03/03 06:01:17;;;;;;;340.77;66.53;;;0.30;99.90;;;0.28;95.99;99797.88;4986052;28;20264;-73
2023/03/03 06:03:44;;;;;;;338.73;68.07;;;0.90;99.90;;;0.27;96.54;99811.72;4982565;28;20255;-73
2023/03/03 06:06:12;;;;;;;341.03;67.20;;;0.40;99.90;;;0.18;96.57;99806.16;4984539;28;20331;-72
2023/03/03 06:08:40;;;;;;;336.33;66.47;;;0.30;99.90;;;0.31;96.85;99829.22;4984550;28;20240;-73
2023/03/03 06:11:07;;;;;;;326.43;61.53;;;0.40;99.90;;;0.15;96.88;99827.72;4980789;28;20232;-73
2023/03/03 06:13:35;;;;;;;338.30;72.00;;;0.60;99.90;;;0.18;97.43;99837.34;4983815;28;20248;-74
2023/03/03 06:16:02;;;;;;;342.50;70.30;;;0.30;99.90;;;0.15;97.03;99832.91;4985038;28;20239;-73
2023/03/03 06:18:29;;;;;;;340.93;70.27;;;0.30;99.90;;;0.15;97.49;99843.31;4980625;28;20236;-73
2023/03/03 06:20:56;;;;;;;338.50;66.60;;;0.30;99.90;;;0.15;97.93;99873.63;4980419;28;20235;-74
2023/03/03 06:23:23;;;;;;;372.57;78.43;;;0.60;99.90;;;0.23;98.25;99885.22;4984602;28;20337;-74
2023/03/03 06:25:52;;;;;;;367.90;77.00;;;0.50;99.90;;;0.19;98.13;99881.63;4977782;28;20290;-73
2023/03/03 06:28:19;;;;;;;341.87;69.07;;;0.50;99.90;;;0.14;98.46;99888.34;4986541;28;20316;-73
2023/03/03 06:30:46;;;;;;;357.03;77.23;;;0.20;99.90;;;0.16;98.93;99896.19;4976316;28;20259;-73
2023/03/03 06:33:14;;;;;;;338.63;70.43;;;0.20;99.90;;;0.19;99.01;99914.53;4978237;28;20263;-73
2023/03/03 06:35:41;;;;;;;342.67;68.60;;;0.30;99.90;;;0.25;99.18;99928.66;4979693;28;20292;-73
2023/03/03 06:38:08;;;;;;;338.90;65.67;;;0.30;99.90;;;0.30;99.07;99940.16;4982763;28;20257;-74
2023/03/03 06:40:35;;;;;;;349.27;70.43;;;0.40;99.90;;;0.31;99.42;99951.44;4976517;28;20255;-75
2023/03/03 06:43:03;;;;;;;337.00;65.93;;;0.40;99.90;;;0.33;99.52;99962.81;4983044;28;20256;-73
2023/03/03 06:45:30;;;;;;;339.93;66.40;;;0.90;99.90;;;0.44;99.53;99978.84;4988458;28;20327;-73
2023/03/03 06:47:57;;;;;;;335.10;68.40;;;0.50;99.90;;;0.49;99.48;99988.63;4982966;28;20764;-74
2023/03/03 06:50:24;;;;;;;344.30;67.33;;;1.20;99.90;;;0.50;99.03;100000.81;4985729;28;20233;-74
2023/03/03 06:53:10;;;;;;;336.03;67.00;;;0.60;99.90;;;0.56;99.28;100011.47;4981783;28;20728;-74
2023/03/03 06:55:38;;;;;;;349.77;70.53;;;0.60;99.90;;;0.60;99.29;100018.59;4971020;28;20282;-74
2023/03/03 06:58:15;;;;;;;325.33;61.63;;;0.70;99.90;;;0.69;99.05;100036.28;4988336;28;20342;-73
2023/03/03 07:00:47;;;;;;;338.20;66.30;;;0.80;99.90;;;0.67;99.10;100052.66;4983350;28;20353;-74
2023/03/03 07:03:18;;;;;;;339.83;65.93;;;0.80;99.90;;;0.72;99.10;100062.44;4984797;28;20231;-73
2023/03/03 07:05:45;;;;;;;333.47;64.90;;;0.80;99.90;;;0.72;99.22;100067.66;4980555;28;20267;-74
2023/03/03 07:08:17;;;;;;;338.17;66.67;;;0.80;99.90;;;0.74;99.34;100076.41;4986465;28;20254;-73
2023/03/03 07:10:45;;;;;;;344.77;71.33;;;0.90;99.90;;;0.80;99.45;100096.59;4980340;28;20228;-73
2023/03/03 07:13:17;;;;;;;347.43;73.37;;;0.80;99.90;;;0.82;99.55;100100.16;4986134;28;20692;-73
2023/03/03 07:15:46;;;;;;;351.33;72.60;;;0.90;99.90;;;0.90;99.41;100112.66;4984285;28;20306;-73
2023/03/03 07:18:54;;;;;;;337.30;78.93;;;1.00;99.90;;;0.93;99.41;100123.22;4987551;28;20523;-73
2023/03/03 07:21:30;;;;;;;334.30;64.57;;;1.60;99.90;;;1.00;99.55;100142.59;5000324;28;20229;-73
2023/03/03 07:23:59;;;;;;;339.60;67.27;;;1.30;99.90;;;1.07;99.25;100152.44;4980872;28;20236;-73
2023/03/03 07:26:31;;;;;;;343.80;72.97;;;1.10;99.90;;;1.13;99.38;100155.28;4986601;28;20236;-72
2023/03/03 07:29:27;;;;;;;337.70;69.27;;;1.20;99.90;;;1.13;98.85;100165.72;4986252;28;20247;-72
2023/03/03 07:31:57;;;;;;;342.33;83.47;;;1.20;99.90;;;1.24;98.73;100182.69;4983730;28;20232;-74
2023/03/03 07:34:47;;;;;;;329.87;68.23;;;1.70;99.90;;;1.24;98.61;100181.78;4986186;28;20244;-74
2023/03/03 07:37:34;;;;;;;337.70;70.73;;;1.30;99.90;;;1.25;98.25;100181.84;4987035;28;20244;-73
2023/03/03 07:40:24;;;;;;;337.57;76.77;;;1.40;99.90;;;1.25;98.48;100186.19;4991421;28;20228;-72
2023/03/03 07:45:36;;;;;;;456.10;132.20;;;1.40;99.90;;;1.40;98.04;100205.09;5533446;23;20235;-70
2023/03/03 07:48:17;;;;;;;366.87;84.13;;;1.50;99.90;;;1.48;98.13;100216.72;4940765;28;20263;-69
2023/03/03 07:50:45;;;;;;;366.77;85.67;;;1.50;99.90;;;1.49;97.69;100223.72;4975384;28;20240;-69
2023/03/03 07:53:26;;;;;;;369.47;83.30;;;1.60;99.90;;;1.54;97.56;100224.78;4967353;28;20322;-70
2023/03/03 07:55:53;;;;;;;387.17;94.53;;;1.60;99.90;;;1.57;97.47;100239.66;4954252;28;20288;-69
2023/03/03 07:58:38;;;;;;;363.87;100.30;;;1.60;99.90;;;1.58;97.43;100244.06;4970981;28;20237;-70
2023/03/03 08:01:30;;;;;;;360.17;85.10;;;1.70;99.90;;;1.59;97.19;100244.09;4966331;28;20258;-70
2023/03/03 08:03:57;;;;;;;363.13;84.00;;;1.60;99.90;;;1.74;96.96;100263.81;4974151;28;20259;-70
2023/03/03 08:06:35;;;;;;;373.70;88.37;;;1.80;99.90;;;1.85;96.84;100275.56;4971346;28;20248;-70
2023/03/03 08:09:19;;;;;;;382.53;99.40;;;1.90;99.90;;;1.76;96.43;100260.44;4969041;28;20291;-70
2023/03/03 08:11:53;;;;;;;374.57;91.70;;;1.80;99.90;;;1.76;96.02;100254.34;4984710;28;20282;-69
2023/03/03 08:14:30;;;;;;;380.93;96.17;;;1.90;99.90;;;1.91;96.10;100271.50;4969734;28;20293;-70
2023/03/03 08:17:29;;;;;;;379.93;85.47;;;1.90;99.90;;;1.98;95.94;100272.63;4947515;28;20232;-70
2023/03/03 08:20:53;;;;;;;378.90;83.90;;;2.00;99.90;;;2.06;95.58;100292.09;4934322;28;20240;-70
2023/03/03 08:23:30;;;;;;;408.63;90.77;;;2.10;99.90;;;2.09;95.29;100293.94;4877606;29;20235;-70
2023/03/03 08:25:57;;;;;;;357.87;79.57;;;2.10;99.90;;;2.05;94.84;100295.53;4898882;29;20246;-69
2023/03/03 08:28:25;;;;;;;390.30;88.40;;;2.10;99.90;;;2.23;94.68;100313.66;4942877;28;20256;-70
2023/03/03 08:30:52;;;;;;;361.43;80.27;;;2.20;99.90;;;2.27;94.39;100318.16;4950721;28;20613;-70
2023/03/03 08:33:35;;;;;;;357.10;78.47;;;2.40;99.90;;;2.25;94.43;100314.59;4944329;28;20232;-70
2023/03/03 08:36:02;;;;;;;383.77;93.73;;;2.30;99.90;;;2.32;94.39;100328.78;4953838;28;20283;-70
2023/03/03 08:38:37;;;;;;;356.97;77.83;;;2.40;99.90;;;2.32;94.14;100329.66;4967437;28;20232;-69
2023/03/03 08:41:06;;;;;;;387.43;92.10;;;2.40;99.90;;;2.49;93.78;100339.06;4945521;28;20243;-69
2023/03/03 08:43:33;;;;;;;374.73;87.67;;;2.50;99.90;;;2.51;93.20;100344.34;4948605;28;20700;-70
2023/03/03 08:46:04;;;;;;;371.90;87.47;;;2.50;99.90;;;2.64;92.95;100356.19;4953153;28;20306;-69
2023/03/03 08:48:32;;;;;;;390.43;95.13;;;2.70;99.90;;;2.75;92.88;100354.88;4963810;28;20239;-70
2023/03/03 08:50:59;;;;;;;373.77;86.07;;;2.70;99.90;;;2.58;92.66;100341.16;4950670;28;20232;-70
2023/03/03 08:53:27;;;;;;;378.07;87.73;;;2.70;99.90;;;2.52;92.67;100333.97;4949480;28;20657;-70
2023/03/03 08:55:55;;;;;;;370.57;85.73;;;2.60;99.90;;;2.63;92.23;100339.63;4965851;28;20240;-70
2023/03/03 08:58:22;;;;;;;409.40;97.77;;;2.60;99.90;;;2.53;92.36;100334.84;4949730;28;20244;-70
2023/03/03 09:01:00;;;;;;;400.97;96.03;;;2.60;99.90;;;2.62;92.32;100345.69;4949188;28;20322;-70
2023/03/03 09:03:28;;;;;;;369.73;83.60;;;2.60;99.90;;;2.56;91.73;100333.25;4959830;28;20649;-70
2023/03/03 09:05:55;;;;;;;376.43;86.23;;;2.60;99.90;;;2.54;91.96;100329.69;4964355;28;20236;-70
2023/03/03 09:08:22;;;;;;;365.90;83.93;;;2.60;99.90;;;2.54;91.91;100334.03;4946610;28;20295;-69
2023/03/03 09:10:49;;;;;;;430.10;127.43;;;2.60;99.90;;;2.77;91.94;100368.91;4942861;28;20294;-70
2023/03/03 09:13:19;;;;;;;390.70;107.57;;;2.70;99.90;;;2.70;91.72;100361.66;4955193;28;20232;-71
2023/03/03 09:15:49;;;;;;;395.07;107.60;;;2.70;99.90;;;2.89;91.32;100383.31;4961994;28;20239;-71
2023/03/03 09:18:31;;;;;;;386.57;111.83;;;2.90;99.90;;;2.88;91.15;100388.47;4956960;28;20283;-71
2023/03/03 09:20:59;;;;;;;379.13;119.20;;;3.00;99.90;;;2.95;91.10;100389.59;4962253;28;20231;-71
2023/03/03 09:23:35;;;;;;;381.37;112.47;;;3.00;99.90;;;3.11;91.23;100403.31;4948627;28;20231;-71
2023/03/03 09:26:29;;;;;;;419.83;122.00;;;3.00;99.90;;;3.04;90.59;100403.03;4953964;28;20236;-70
2023/03/03 09:29:15;;;;;;;373.77;128.07;;;3.10;99.90;;;3.08;90.52;100397.97;4975514;28;20561;-71
2023/03/03 09:31:51;;;;;;;377.37;105.40;;;3.00;99.90;;;3.30;89.93;100410.13;4945237;28;20244;-71
2023/03/03 09:34:26;;;;;;;373.60;92.30;;;3.30;99.90;;;3.48;89.18;100420.38;4960977;28;20430;-69
2023/03/03 09:36:54;;;;;;;398.67;99.90;;;3.40;99.90;;;3.55;88.73;100417.16;4951716;28;20247;-69
2023/03/03 09:39:25;;;;;;;376.43;90.00;;;3.50;99.90;;;3.45;88.50;100396.72;4961353;28;20260;-69
2023/03/03 09:42:49;;;;;;;374.73;100.07;;;3.40;99.90;;;3.44;88.30;100374.94;4959834;28;20298;-68
2023/03/03 09:45:49;;;;;;;402.67;103.17;;;3.40;99.90;;;3.64;88.45;100393.94;4943599;28;20714;-70
2023/03/03 09:48:49;;;;;;;395.27;103.37;;;3.60;99.90;;;3.79;88.43;100398.84;4959125;28;20228;-70
2023/03/03 09:51:34;;;;;;;367.13;89.57;;;3.70;99.90;;;3.59;87.76;100386.78;4943762;28;20352;-70
2023/03/03 09:54:16;;;;;;;401.93;98.97;;;3.70;99.90;;;3.65;87.60;100382.66;4959956;28;20228;-70
2023/03/03 09:57:04;;;;;;;372.67;98.57;;;3.60;99.90;;;3.60;87.56;100375.50;4974680;28;20234;-70
2023/03/03 09:59:50;;;;;;;385.23;105.70;;;3.60;99.90;;;3.77;87.67;100388.31;4958943;28;20744;-70
2023/03/03 10:02:48;;;;;;;416.23;105.60;;;3.60;99.90;;;4.00;87.41;100410.09;4954201;28;20583;-70
2023/03/03 10:05:51;;;;;;;381.17;93.57;;;3.90;99.90;;;3.95;86.26;100392.44;4962618;28;20327;-70
2023/03/03 10:08:42;;;;;;;425.80;113.73;;;4.00;99.90;;;3.98;85.91;100379.47;4954616;28;20236;-70
2023/03/03 10:11:28;;;;;;;357.60;87.93;;;3.90;99.90;;;3.97;85.60;100367.22;4956231;28;20228;-70
2023/03/03 10:14:04;;;;;;;397.73;103.20;;;3.90;99.90;;;3.92;85.50;100367.06;4962718;28;20267;-70
2023/03/03 10:16:51;;;;;;;394.07;101.10;;;3.90;99.90;;;4.34;85.19;100404.28;4961620;28;20256;-70
2023/03/03 10:20:10;;;;;;;352.30;90.13;;;4.20;99.90;;;4.47;84.01;100387.25;4956206;28;20339;-71
2023/03/03 10:23:20;;;;;;;362.50;92.13;;;4.50;99.90;;;4.59;83.55;100365.78;4958254;28;20239;-70
2023/03/03 10:26:12;;;;;;;391.30;104.13;;;4.50;99.90;;;4.80;82.69;100351.63;4963840;28;20236;-70
2023/03/03 10:29:03;;;;;;;378.37;102.37;;;4.70;99.90;;;4.71;82.58;100327.78;4978583;28;20237;-70
2023/03/03 10:32:11;;;;;;;383.83;106.17;;;4.70;99.90;;;4.70;82.03;100307.66;4962613;28;20236;-72
2023/03/03 10:35:13;;;;;;;348.30;89.13;;;4.70;99.90;;;4.95;81.85;100308.38;4953464;28;20244;-73
2023/03/03 10:38:13;;;;;;;394.53;108.00;;;4.80;99.90;;;5.06;81.08;100309.59;4976369;28;20236;-74